Time;durP1;ratioP1;P1;durP2;ratioP2;P2;SDS_P1;SDS_P2;PMS_P1;PMS_P2;Temp;Humidity;BMP_temperature;BMP_pressure;BME280_temperature;BME280_humidity;BME280_pressure;Samples;Min_cycle;Max_cycle;Signal;HPM_P1;HPM_P2
2021/09/25 14:51:28;;;;;;;;;17.25;17.00;;;;;23.65;58.86;100943.44;5112329;27;45603;-57
2021/09/25 14:53:54;;;;;;;;;20.50;19.25;;;;;23.75;59.51;100937.38;5095032;27;45747;-55
2021/09/25 14:56:20;;;;;;;;;16.00;16.00;;;;;23.87;59.67;100939.91;5095533;27;46240;-52
2021/09/25 14:58:46;;;;;;;;;17.50;16.75;;;;;24.01;58.81;100927.31;5095343;27;45451;-66
2021/09/25 15:01:12;;;;;;;;;16.75;13.00;;;;;24.20;58.21;100938.13;5095103;27;45457;-61
2021/09/25 15:03:37;;;;;;;;;15.75;14.50;;;;;24.34;57.98;100937.91;5095183;27;45385;-63
2021/09/25 15:06:02;;;;;;;;;14.75;12.50;;;;;24.52;57.42;100935.53;5095390;27;45814;-67
2021/09/25 15:08:28;;;;;;;;;16.50;13.25;;;;;24.66;57.00;100931.75;5094952;27;45476;-64
2021/09/25 15:10:53;;;;;;;;;14.50;13.25;;;;;24.77;56.40;100931.66;5095125;27;46101;-64
2021/09/25 15:13:19;;;;;;;;;14.00;14.00;;;;;24.90;56.40;100932.34;5094994;27;45522;-63
2021/09/25 15:15:45;;;;;;;;;18.75;17.00;;;;;25.02;56.21;100928.66;5095266;27;45467;-61
2021/09/25 15:18:10;;;;;;;;;14.50;13.00;;;;;25.15;55.71;100921.31;5094658;27;45527;-68
2021/09/25 15:20:35;;;;;;;;;19.75;15.50;;;;;25.28;55.91;100925.59;5095006;27;46125;-66
2021/09/25 15:23:01;;;;;;;;;14.00;13.00;;;;;25.38;53.44;100929.13;5094790;27;45430;-53
2021/09/25 15:25:26;;;;;;;;;19.25;15.75;;;;;25.46;56.01;100922.19;5094944;27;45226;-52
2021/09/25 15:27:51;;;;;;;;;17.25;16.25;;;;;25.61;55.74;100929.78;5095886;27;45470;-52
2021/09/25 15:30:17;;;;;;;;;15.25;13.50;;;;;25.71;55.72;100920.06;5096120;27;46224;-53
2021/09/25 15:32:42;;;;;;;;;16.25;15.50;;;;;25.80;55.25;100929.03;5096316;27;45413;-52
2021/09/25 15:35:09;;;;;;;;;15.50;14.25;;;;;25.83;56.78;100934.09;5095937;27;45240;-53
2021/09/25 15:37:34;;;;;;;;;24.25;18.00;;;;;25.82;55.09;100932.41;5094833;27;45177;-52
2021/09/25 15:40:01;;;;;;;;;24.00;18.50;;;;;25.80;55.12;100929.88;5093937;27;46309;-52
2021/09/25 15:42:27;;;;;;;;;22.75;18.50;;;;;25.81;55.82;100920.06;5090278;27;45522;-52
2021/09/25 15:44:52;;;;;;;;;18.25;14.50;;;;;25.83;54.83;100924.31;5095078;27;45417;-51
2021/09/25 15:47:18;;;;;;;;;16.50;15.00;;;;;25.85;55.06;100921.50;5095997;27;45261;-54
2021/09/25 15:49:45;;;;;;;;;16.25;14.00;;;;;25.85;55.34;100918.84;5095688;27;46199;-52
2021/09/25 15:52:10;;;;;;;;;14.25;13.25;;;;;25.78;54.25;100924.69;5095461;27;45287;-52
2021/09/25 15:54:36;;;;;;;;;16.50;14.00;;;;;25.76;54.00;100933.81;5095656;27;45327;-54
2021/09/25 15:57:01;;;;;;;;;15.00;15.00;;;;;25.65;53.50;100926.75;5095206;27;45380;-54
2021/09/25 15:59:27;;;;;;;;;16.25;15.50;;;;;25.52;54.43;100931.44;5096013;27;45950;-53
2021/09/25 16:01:52;;;;;;;;;14.00;13.25;;;;;25.42;54.69;100928.72;5087203;27;45338;-54
2021/09/25 16:04:22;;;;;;;;;19.25;18.00;;;;;25.35;55.82;100934.72;5080873;27;45369;-54
2021/09/25 16:06:50;;;;;;;;;17.00;16.00;;;;;25.25;54.75;100933.84;5081375;27;45442;-53
2021/09/25 16:09:15;;;;;;;;;18.00;16.75;;;;;25.18;55.30;100926.38;5081256;27;47118;-54
2021/09/25 16:11:40;;;;;;;;;17.50;15.25;;;;;25.09;56.06;100927.16;5080966;28;45602;-55
2021/09/25 16:14:06;;;;;;;;;17.75;17.25;;;;;25.05;56.68;100922.25;5081375;27;45408;-54
2021/09/25 16:16:31;;;;;;;;;18.00;16.75;;;;;24.99;56.84;100931.56;5079992;28;46313;-54
2021/09/25 16:18:57;;;;;;;;;17.25;14.25;;;;;24.92;56.86;100927.72;5077794;28;45456;-54
2021/09/25 16:21:22;;;;;;;;;15.75;14.00;;;;;24.89;56.36;100933.31;5079383;28;45499;-54
2021/09/25 16:23:48;;;;;;;;;21.25;18.00;;;;;24.85;56.66;100931.88;5080436;27;45414;-53
2021/09/25 16:26:13;;;;;;;;;18.00;16.50;;;;;24.83;56.98;100929.38;5078145;28;45223;-53
2021/09/25 16:28:39;;;;;;;;;14.75;14.50;;;;;24.78;58.23;100926.22;5086134;27;46059;-62
2021/09/25 16:31:04;;;;;;;;;14.00;13.00;;;;;24.78;56.55;100930.69;5081349;27;45361;-62
2021/09/25 16:33:29;;;;;;;;;19.50;16.25;;;;;24.79;56.15;100943.84;5082041;27;45298;-65
2021/09/25 16:35:55;;;;;;;;;15.25;15.25;;;;;24.75;56.42;100936.28;5081470;27;45592;-65
2021/09/25 16:38:20;;;;;;;;;16.00;15.50;;;;;24.70;56.59;100939.31;5081336;28;46245;-64
2021/09/25 16:40:45;;;;;;;;;15.75;14.25;;;;;24.64;57.08;100942.50;5081300;27;45228;-64
2021/09/25 16:43:11;;;;;;;;;15.00;13.25;;;;;24.60;56.90;100942.88;5081686;27;45366;-65
2021/09/25 16:45:39;;;;;;;;;18.25;15.00;;;;;24.54;57.15;100942.41;5080104;28;45461;-63
2021/09/25 16:48:05;;;;;;;;;20.00;19.75;;;;;24.49;56.58;100939.31;5068415;28;46235;-65
2021/09/25 16:50:31;;;;;;;;;16.50;15.75;;;;;24.48;56.75;100945.59;5067493;28;45643;-64
2021/09/25 16:52:56;;;;;;;;;16.75;15.50;;;;;24.46;57.39;100941.38;5080672;28;45309;-65
2021/09/25 16:55:22;;;;;;;;;24.50;24.00;;;;;24.43;57.32;100942.47;5080527;27;45285;-64
2021/09/25 16:57:47;;;;;;;;;15.25;14.75;;;;;24.38;57.03;100944.63;5081459;27;46163;-65
2021/09/25 17:00:14;;;;;;;;;17.00;16.75;;;;;24.32;57.24;100942.50;5081123;28;46576;-65
2021/09/25 17:02:39;;;;;;;;;40.50;32.00;;;;;24.26;57.38;100946.47;5081644;27;45294;-64
2021/09/25 17:05:05;;;;;;;;;17.25;17.25;;;;;24.20;57.50;100952.25;5080897;27;45412;-64
2021/09/25 17:07:31;;;;;;;;;28.00;24.50;;;;;24.18;58.09;100945.38;5081118;27;46129;-61
2021/09/25 17:09:56;;;;;;;;;64.75;49.00;;;;;24.17;58.31;100943.72;5080729;27;45556;-59
2021/09/25 17:12:22;;;;;;;;;97.25;85.25;;;;;24.15;58.44;100941.19;5079589;28;45179;-64
2021/09/25 17:14:48;;;;;;;;;43.75;35.50;;;;;24.09;58.01;100938.19;5079655;27;45165;-63
2021/09/25 17:17:13;;;;;;;;;38.00;33.00;;;;;24.01;57.52;100940.59;5075356;27;45319;-63
2021/09/25 17:19:39;;;;;;;;;23.75;20.25;;;;;23.89;58.02;100930.00;5074967;28;45482;-63
2021/09/25 17:22:05;;;;;;;;;26.25;24.75;;;;;23.89;58.60;100939.78;5081352;27;45251;-63
2021/09/25 17:24:30;;;;;;;;;24.00;22.00;;;;;23.87;58.42;100939.06;5080769;27;45326;-64
2021/09/25 17:26:56;;;;;;;;;21.25;20.50;;;;;23.84;58.58;100934.00;5081043;27;46892;-63
2021/09/25 17:29:21;;;;;;;;;24.00;22.00;;;;;23.81;59.29;100932.41;5080907;27;45328;-64
2021/09/25 17:31:47;;;;;;;;;28.00;25.00;;;;;23.81;58.71;100935.06;5081387;27;45328;-63
2021/09/25 17:34:12;;;;;;;;;26.25;23.25;;;;;23.81;58.78;100942.19;5080726;27;45589;-63
2021/09/25 17:36:37;;;;;;;;;31.25;23.00;;;;;23.76;59.03;100926.63;5080672;27;47053;-63
2021/09/25 17:39:03;;;;;;;;;25.25;21.25;;;;;23.73;59.21;100926.88;5080681;27;45360;-63
2021/09/25 17:41:29;;;;;;;;;37.50;30.75;;;;;23.71;58.84;100922.66;5079515;28;45289;-63
2021/09/25 17:43:54;;;;;;;;;30.50;26.25;;;;;23.69;59.23;100930.75;5079220;27;45334;-63
2021/09/25 17:46:19;;;;;;;;;77.50;63.00;;;;;23.64;59.61;100936.44;5078951;27;46076;-63
2021/09/25 17:48:45;;;;;;;;;39.25;32.75;;;;;23.62;60.03;100934.84;5080212;27;45238;-63
2021/09/25 17:51:10;;;;;;;;;39.50;32.25;;;;;23.58;59.41;100933.41;5077967;28;45390;-63
2021/09/25 17:53:35;;;;;;;;;41.75;33.50;;;;;23.55;59.63;100937.13;5079072;27;45244;-63
2021/09/25 17:56:01;;;;;;;;;31.50;27.50;;;;;23.51;60.22;100935.69;5073432;27;46048;-65
2021/09/25 17:58:26;;;;;;;;;40.00;33.25;;;;;23.46;60.48;100935.19;5073286;28;45315;-64
2021/09/25 18:00:54;;;;;;;;;37.00;29.25;;;;;23.39;61.08;100939.28;5080308;28;45217;-63
2021/09/25 18:03:19;;;;;;;;;33.75;29.75;;;;;23.32;61.18;100946.88;5080694;27;45394;-64
2021/09/25 18:05:45;;;;;;;;;33.00;31.25;;;;;23.30;61.19;100947.97;5080144;27;45544;-62
2021/09/25 18:08:10;;;;;;;;;33.25;30.25;;;;;23.30;61.42;100947.97;5095955;27;45282;-62
2021/09/25 18:10:36;;;;;;;;;30.25;26.75;;;;;23.26;61.43;100942.06;5080253;27;45347;-64
2021/09/25 18:13:01;;;;;;;;;27.50;27.00;;;;;23.24;61.80;100948.44;5080511;27;45526;-62
2021/09/25 18:15:27;;;;;;;;;23.50;23.25;;;;;23.22;61.33;100953.00;5080250;27;45388;-63
2021/09/25 18:17:52;;;;;;;;;31.25;26.00;;;;;23.19;61.53;100956.72;5068961;27;45259;-61
2021/09/25 18:20:18;;;;;;;;;32.25;30.00;;;;;23.16;62.11;100958.78;5079390;27;45250;-59
2021/09/25 18:22:43;;;;;;;;;33.75;30.25;;;;;23.13;61.94;100959.84;5079992;27;45398;-65
2021/09/25 18:25:11;;;;;;;;;29.00;27.00;;;;;23.12;62.16;100960.81;5075888;27;45945;-64
2021/09/25 18:27:37;;;;;;;;;37.25;28.75;;;;;23.09;62.93;100955.75;5078423;27;45401;-65
2021/09/25 18:30:03;;;;;;;;;34.75;31.00;;;;;23.07;63.12;100955.03;5078302;27;45410;-65
2021/09/25 18:32:29;;;;;;;;;32.75;29.50;;;;;23.03;63.56;100958.88;5079293;27;45326;-61
2021/09/25 18:34:55;;;;;;;;;39.00;31.00;;;;;23.00;63.63;100959.94;5079626;27;45281;-60
2021/09/25 18:37:25;;;;;;;;;31.75;29.50;;;;;22.98;63.70;100959.22;5078036;27;45416;-59
2021/09/25 18:39:51;;;;;;;;;37.00;30.75;;;;;22.97;64.07;100959.34;5080095;28;45306;-62
2021/09/25 18:42:18;;;;;;;;;30.75;30.00;;;;;22.93;64.54;100956.06;5078227;28;45924;-60
2021/09/25 18:44:43;;;;;;;;;35.75;28.25;;;;;22.93;64.96;100960.53;5078657;28;47095;-61
2021/09/25 18:47:08;;;;;;;;;35.75;30.75;;;;;22.90;65.02;100958.13;5078883;28;45391;-60
2021/09/25 18:49:34;;;;;;;;;41.25;32.50;;;;;22.87;64.96;100958.34;5079181;27;45343;-60
2021/09/25 18:52:00;;;;;;;;;39.25;32.25;;;;;22.83;65.32;100957.75;5078451;27;45651;-66
2021/09/25 18:54:25;;;;;;;;;43.00;32.00;;;;;22.80;65.43;100960.56;5079001;28;45650;-60
2021/09/25 18:56:51;;;;;;;;;42.25;31.00;;;;;22.78;65.43;100954.53;5079646;27;45317;-60
2021/09/25 18:59:16;;;;;;;;;42.00;33.25;;;;;22.77;65.80;100958.16;5073514;27;45395;-59
2021/09/25 19:01:41;;;;;;;;;43.25;34.00;;;;;22.76;65.73;100954.66;5072517;28;45343;-60
2021/09/25 19:04:07;;;;;;;;;42.25;34.75;;;;;22.78;66.40;100965.13;5079606;27;46126;-61
2021/09/25 19:06:35;;;;;;;;;54.25;44.25;;;;;22.76;66.43;100962.59;5065009;28;45367;-61
2021/09/25 19:09:07;;;;;;;;;51.50;41.25;;;;;22.77;66.25;100959.00;5076828;28;45569;-60
2021/09/25 19:11:33;;;;;;;;;58.50;45.75;;;;;22.73;66.54;100962.00;5074869;28;45386;-60
2021/09/25 19:13:59;;;;;;;;;42.50;33.00;;;;;22.67;67.07;100959.81;5078196;27;46331;-59
2021/09/25 19:16:24;;;;;;;;;47.50;37.50;;;;;22.65;67.28;100954.63;5078936;27;45660;-59
2021/09/25 19:18:49;;;;;;;;;48.50;36.75;;;;;22.66;67.17;100952.81;5067653;27;45295;-61
2021/09/25 19:21:15;;;;;;;;;46.50;37.50;;;;;22.66;67.46;100963.44;5078935;27;45535;-61
2021/09/25 19:23:40;;;;;;;;;51.75;39.75;;;;;22.61;68.22;100962.91;5078989;27;46203;-61
2021/09/25 19:26:06;;;;;;;;;42.75;34.50;;;;;22.58;68.21;100960.47;5079045;27;45700;-63
2021/09/25 19:28:31;;;;;;;;;40.25;35.75;;;;;22.55;68.71;100960.72;5079505;27;45425;-62
2021/09/25 19:30:57;;;;;;;;;38.25;32.25;;;;;22.53;68.52;100944.94;5078836;27;45327;-62
2021/09/25 19:33:22;;;;;;;;;45.25;37.75;;;;;22.54;69.86;100941.31;5079152;27;45257;-62
2021/09/25 19:35:48;;;;;;;;;51.75;41.50;;;;;22.55;70.07;100944.81;5078781;27;45187;-64
2021/09/25 19:38:13;;;;;;;;;47.50;37.00;;;;;22.52;69.46;100943.25;5082467;27;45493;-62
2021/09/25 19:40:38;;;;;;;;;49.50;39.25;;;;;22.52;70.19;100943.25;5082476;27;45282;-62
2021/09/25 19:43:04;;;;;;;;;49.50;38.00;;;;;22.51;69.53;100941.56;5076130;27;45541;-63
2021/09/25 19:45:30;;;;;;;;;42.00;34.75;;;;;22.52;70.21;100953.84;5081778;28;45310;-63
2021/09/25 19:47:56;;;;;;;;;48.50;37.50;;;;;22.51;69.88;100946.84;5082005;27;45414;-61
2021/09/25 19:50:22;;;;;;;;;34.50;31.00;;;;;22.50;70.39;100955.75;5082270;27;45333;-60
2021/09/25 19:52:47;;;;;;;;;34.75;29.50;;;;;22.49;69.70;100963.81;5075998;27;45779;-63
2021/09/25 19:55:15;;;;;;;;;36.50;31.00;;;;;22.48;70.26;100962.13;5096807;27;45267;-61
2021/09/25 19:57:41;;;;;;;;;35.50;29.50;;;;;22.46;70.09;100962.25;5081477;28;45211;-65
2021/09/25 20:00:09;;;;;;;;;33.00;30.00;;;;;22.42;70.21;100958.94;5082194;27;45330;-64
2021/09/25 20:02:35;;;;;;;;;32.50;26.25;;;;;22.39;69.62;100963.63;5082332;27;47929;-69
2021/09/25 20:05:00;;;;;;;;;34.00;28.50;;;;;22.37;70.21;100970.84;5082093;27;45302;-65
2021/09/25 20:07:26;;;;;;;;;37.50;29.75;;;;;22.29;70.16;100966.13;5082039;27;45523;-63
2021/09/25 20:09:52;;;;;;;;;33.50;28.00;;;;;22.28;70.30;100971.53;5068354;27;45375;-64
2021/09/25 20:12:18;;;;;;;;;29.75;23.75;;;;;22.27;70.09;100972.50;5068649;28;47071;-65
2021/09/25 20:14:48;;;;;;;;;36.00;30.25;;;;;22.22;70.02;100986.03;5080940;27;45374;-65
2021/09/25 20:17:14;;;;;;;;;34.50;27.75;;;;;22.17;70.61;100982.88;5063484;28;45542;-62
2021/09/25 20:19:39;;;;;;;;;34.25;29.75;;;;;22.11;70.53;100981.53;5062787;28;45248;-63
2021/09/25 20:22:04;;;;;;;;;34.50;30.50;;;;;22.08;70.49;100991.50;5082044;27;45862;-68
2021/09/25 20:24:30;;;;;;;;;22.00;19.50;;;;;22.00;71.13;100992.00;5081740;27;45333;-62
2021/09/25 20:26:55;;;;;;;;;40.50;29.00;;;;;21.92;71.19;100997.00;5080262;27;46520;-62
2021/09/25 20:29:20;;;;;;;;;30.25;27.75;;;;;21.86;71.78;100997.44;5065949;28;45552;-62
2021/09/25 20:31:46;;;;;;;;;27.75;21.50;;;;;21.79;72.55;100982.94;5081939;27;46134;-68
2021/09/25 20:34:11;;;;;;;;;29.75;25.25;;;;;21.72;73.34;100990.47;5081480;27;45287;-67
2021/09/25 20:36:37;;;;;;;;;27.25;27.25;;;;;21.68;73.43;100990.78;5068830;28;45839;-67
2021/09/25 20:39:03;;;;;;;;;24.50;22.75;;;;;21.62;74.31;100993.84;5081070;27;45509;-68
2021/09/25 20:41:28;;;;;;;;;31.50;26.25;;;;;21.55;74.89;100985.50;5068443;28;46745;-67
2021/09/25 20:43:54;;;;;;;;;30.50;27.75;;;;;21.50;75.74;100988.47;5080838;27;45176;-67
2021/09/25 20:46:19;;;;;;;;;43.75;30.50;;;;;21.48;76.60;100993.03;5080420;27;45472;-67
2021/09/25 20:48:45;;;;;;;;;28.25;28.25;;;;;21.46;76.82;100992.28;5081553;27;45482;-68
2021/09/25 20:51:10;;;;;;;;;29.50;23.25;;;;;21.43;77.99;100994.31;5080744;27;46270;-69
2021/09/25 20:53:35;;;;;;;;;23.00;19.50;;;;;21.37;79.01;100992.91;5076034;27;45416;-63
2021/09/25 20:56:01;;;;;;;;;24.00;22.25;;;;;21.29;80.44;100991.75;5079906;27;45462;-62
2021/09/25 20:58:26;;;;;;;;;27.25;21.50;;;;;21.22;80.38;100993.91;5074796;27;45624;-69
2021/09/25 21:00:52;;;;;;;;;25.50;23.00;;;;;21.16;80.52;101000.47;5080035;27;46095;-62
2021/09/25 21:03:18;;;;;;;;;22.25;20.50;;;;;21.13;82.63;101005.13;5081239;27;45248;-62
2021/09/25 21:05:44;;;;;;;;;22.75;21.75;;;;;21.11;81.46;101013.16;5081205;27;45231;-64
2021/09/25 21:08:10;;;;;;;;;25.25;20.50;;;;;21.07;82.42;101008.19;5081160;27;45311;-62
2021/09/25 21:10:36;;;;;;;;;27.25;23.50;;;;;21.05;82.33;101013.56;5079868;28;46160;-61
2021/09/25 21:13:03;;;;;;;;;29.25;19.50;;;;;21.05;83.63;101013.56;5077604;28;45567;-61
2021/09/25 21:15:28;;;;;;;;;27.50;22.50;;;;;20.99;83.67;101015.75;5080422;27;45501;-62
2021/09/25 21:17:54;;;;;;;;;26.50;23.75;;;;;20.94;83.15;101010.78;5078839;28;45655;-62
2021/09/25 21:20:19;;;;;;;;;24.50;24.00;;;;;20.95;82.94;101017.75;5079634;28;45540;-65
2021/09/25 21:22:45;;;;;;;;;23.75;20.00;;;;;20.99;83.37;101021.03;5080284;27;45431;-61
2021/09/25 21:25:12;;;;;;;;;24.75;22.50;;;;;20.98;83.71;101012.25;5080417;28;45413;-62
2021/09/25 21:27:41;;;;;;;;;24.00;19.25;;;;;20.91;83.65;101018.91;5079779;27;46408;-72
2021/09/25 21:30:09;;;;;;;;;24.75;21.50;;;;;20.87;84.26;101015.63;5077605;28;46273;-63
2021/09/25 21:32:35;;;;;;;;;24.50;22.00;;;;;20.81;85.98;101023.09;5079566;27;45559;-62
2021/09/25 21:35:00;;;;;;;;;22.25;19.75;;;;;20.69;84.70;101019.47;5080522;27;45218;-68
2021/09/25 21:37:26;;;;;;;;;25.50;23.00;;;;;20.69;84.67;101019.47;5079790;28;45260;-63
2021/09/25 21:39:52;;;;;;;;;24.25;19.75;;;;;20.68;84.40;101023.06;5079302;27;47328;-62
2021/09/25 21:42:17;;;;;;;;;22.50;21.75;;;;;20.66;85.03;101024.97;5084167;27;45303;-62
2021/09/25 21:44:46;;;;;;;;;23.75;22.50;;;;;20.66;84.72;101027.59;5080175;27;45412;-65
2021/09/25 21:47:12;;;;;;;;;27.50;22.00;;;;;20.63;85.26;101035.72;5079161;28;46175;-66
2021/09/25 21:49:38;;;;;;;;;28.75;22.75;;;;;20.59;85.68;101044.78;5079232;27;46013;-62
2021/09/25 21:52:03;;;;;;;;;22.75;21.25;;;;;20.54;86.73;101031.88;5076084;27;45599;-62
2021/09/25 21:54:32;;;;;;;;;21.75;20.75;;;;;20.52;86.25;101028.50;5078495;27;45414;-64
2021/09/25 21:56:59;;;;;;;;;24.50;22.25;;;;;20.55;86.10;101035.38;5080434;28;45429;-62
2021/09/25 21:59:26;;;;;;;;;20.25;20.25;;;;;20.58;85.56;101017.53;5079825;27;45263;-59
2021/09/25 22:01:52;;;;;;;;;23.25;22.00;;;;;20.62;85.59;101023.44;5080189;27;45821;-62
2021/09/25 22:04:17;;;;;;;;;27.50;21.50;;;;;20.66;85.51;101019.69;5080659;27;45333;-62
2021/09/25 22:06:43;;;;;;;;;28.25;22.00;;;;;20.64;85.10;101014.50;5080097;27;45515;-62
2021/09/25 22:09:08;;;;;;;;;25.25;23.50;;;;;20.67;84.94;101021.38;5080042;27;47284;-62
2021/09/25 22:11:34;;;;;;;;;24.25;22.25;;;;;20.68;85.08;101023.06;5080195;27;45471;-62
2021/09/25 22:13:59;;;;;;;;;32.00;23.75;;;;;20.69;84.63;101019.47;5080631;27;45296;-62
2021/09/25 22:16:25;;;;;;;;;30.50;30.00;;;;;20.68;84.76;101017.78;5079965;27;45395;-63
2021/09/25 22:18:51;;;;;;;;;38.75;31.25;;;;;20.68;84.53;101022.22;5068307;27;47189;-63
2021/09/25 22:21:19;;;;;;;;;31.00;28.00;;;;;20.62;84.89;101028.72;5079686;27;45833;-62
2021/09/25 22:23:45;;;;;;;;;40.50;32.25;;;;;20.60;84.86;101025.34;5071758;27;45334;-62
2021/09/25 22:26:10;;;;;;;;;36.25;31.25;;;;;20.58;84.66;101032.53;5074958;28;45301;-62
2021/09/25 22:28:37;;;;;;;;;36.75;31.75;;;;;20.55;84.63;101038.84;5078402;27;45880;-62
2021/09/25 22:31:04;;;;;;;;;33.00;29.75;;;;;20.52;84.81;101043.47;5079796;27;45874;-62
2021/09/25 22:33:32;;;;;;;;;28.25;27.25;;;;;20.49;84.80;101062.16;5093430;27;45545;-62
2021/09/25 22:36:03;;;;;;;;;29.25;26.00;;;;;20.45;84.90;101055.41;5078392;27;45503;-62
2021/09/25 22:38:33;;;;;;;;;29.00;25.25;;;;;20.39;85.25;101053.94;5078372;27;46813;-62
2021/09/25 22:40:59;;;;;;;;;27.25;22.75;;;;;20.34;84.98;101054.22;5079124;27;45349;-61
2021/09/25 22:43:27;;;;;;;;;25.25;24.25;;;;;20.31;85.90;101059.72;5079331;27;45551;-61
2021/09/25 22:45:54;;;;;;;;;21.25;21.25;;;;;20.29;85.76;101068.69;5077940;27;45414;-61
2021/09/25 22:48:19;;;;;;;;;26.75;22.25;;;;;20.21;85.71;101066.50;5079380;27;46389;-61
2021/09/25 22:50:46;;;;;;;;;29.25;21.75;;;;;20.17;86.36;101069.44;5078689;27;45219;-62
2021/09/25 22:53:12;;;;;;;;;26.00;25.00;;;;;20.10;86.05;101070.75;5073821;27;45426;-62
2021/09/25 22:55:38;;;;;;;;;29.50;25.00;;;;;20.07;86.35;101071.81;5076991;28;45404;-64
2021/09/25 22:58:03;;;;;;;;;27.25;26.75;;;;;20.02;86.77;101061.53;5079379;27;45576;-62
2021/09/25 23:00:29;;;;;;;;;28.00;26.00;;;;;20.01;87.67;101077.44;5076372;28;45463;-61
2021/09/25 23:02:54;;;;;;;;;26.00;24.00;;;;;19.92;87.76;101070.09;5079894;27;45666;-61
2021/09/25 23:05:20;;;;;;;;;29.75;25.75;;;;;19.87;87.55;101078.28;5079131;27;45404;-61
2021/09/25 23:07:45;;;;;;;;;33.50;27.00;;;;;19.86;87.82;101073.13;5079409;27;46274;-61
2021/09/25 23:10:12;;;;;;;;;31.75;27.25;;;;;19.82;88.22;101082.13;5078165;27;45668;-59
2021/09/25 23:12:39;;;;;;;;;25.75;21.00;;;;;19.81;87.89;101080.44;5079931;27;45670;-61
2021/09/25 23:15:06;;;;;;;;;28.00;27.00;;;;;19.80;88.02;101068.19;5080960;27;45597;-62
2021/09/25 23:17:32;;;;;;;;;26.75;23.75;;;;;19.79;88.20;101069.13;5070591;27;45980;-60
2021/09/25 23:19:57;;;;;;;;;23.25;23.25;;;;;19.77;87.86;101061.31;5079200;28;45409;-61
2021/09/25 23:22:23;;;;;;;;;27.50;24.25;;;;;19.74;87.50;101066.78;5082725;27;45425;-59
2021/09/25 23:24:48;;;;;;;;;25.25;21.00;;;;;19.70;88.29;101060.84;5082681;27;45355;-63
2021/09/25 23:27:14;;;;;;;;;34.50;27.50;;;;;19.66;88.68;101053.22;5082845;27;45585;-62
2021/09/25 23:29:39;;;;;;;;;25.75;24.25;;;;;19.60;88.25;101049.16;5082834;27;45480;-62
2021/09/25 23:32:05;;;;;;;;;26.75;23.50;;;;;19.56;88.85;101037.09;5082746;27;45449;-61
2021/09/25 23:34:31;;;;;;;;;31.50;27.75;;;;;19.53;89.06;101036.41;5082277;27;45612;-61
2021/09/25 23:36:58;;;;;;;;;30.50;27.00;;;;;19.52;89.20;101037.34;5082934;27;46101;-62
2021/09/25 23:39:24;;;;;;;;;27.50;25.50;;;;;19.53;88.78;101039.88;5082616;28;45314;-62
2021/09/25 23:41:49;;;;;;;;;25.75;24.25;;;;;19.54;88.28;101036.34;5082997;27;45389;-62
2021/09/25 23:44:14;;;;;;;;;24.25;24.25;;;;;19.52;88.72;101035.56;5080752;27;45223;-62
2021/09/25 23:46:40;;;;;;;;;25.75;22.75;;;;;19.53;88.92;101021.44;5082193;27;45237;-62
2021/09/25 23:49:06;;;;;;;;;27.00;25.25;;;;;19.53;88.44;101017.94;5082689;27;45306;-62
2021/09/25 23:51:31;;;;;;;;;28.75;26.75;;;;;19.53;88.26;101004.78;5082172;27;45262;-63
2021/09/25 23:53:56;;;;;;;;;26.00;23.25;;;;;19.50;88.48;101004.97;5081479;27;45220;-63
2021/09/25 23:56:23;;;;;;;;;24.75;21.50;;;;;19.50;87.98;101003.16;5082704;27;46243;-63
2021/09/25 23:58:48;;;;;;;;;30.25;25.25;;;;;19.48;88.36;101001.56;5082420;27;45298;-63
